Time;durP1;ratioP1;P1;durP2;ratioP2;P2;SDS_P1;SDS_P2;PMS_P1;PMS_P2;Temp;Humidity;BMP_temperature;BMP_pressure;BME280_temperature;BME280_humidity;BME280_pressure;Samples;Min_cycle;Max_cycle;Signal;HPM_P1;HPM_P2
2021/08/26 00:06:35;;;;;;;10.47;9.17;;;16.00;99.90;;;;;;5071400;28;20424;-71
2021/08/26 00:09:00;;;;;;;11.00;9.40;;;16.00;99.90;;;;;;5071984;28;20441;-71
2021/08/26 00:11:26;;;;;;;11.90;9.40;;;16.00;99.90;;;;;;5058348;28;20508;-70
2021/08/26 00:13:52;;;;;;;9.50;7.90;;;15.90;99.90;;;;;;5051906;28;20168;-70
2021/08/26 00:16:21;;;;;;;9.70;7.87;;;15.90;99.90;;;;;;5052466;28;20164;-70
2021/08/26 00:18:47;;;;;;;9.70;8.10;;;15.90;99.90;;;;;;5051976;28;20401;-70
2021/08/26 00:21:13;;;;;;;9.13;7.10;;;15.90;99.90;;;;;;5064839;28;20418;-70
2021/08/26 00:23:39;;;;;;;9.70;7.60;;;15.80;99.90;;;;;;5051991;28;20965;-70
2021/08/26 00:26:05;;;;;;;12.73;9.10;;;15.80;99.90;;;;;;5068989;28;20421;-71
2021/08/26 00:28:30;;;;;;;19.57;10.60;;;15.80;99.90;;;;;;5071720;28;20460;-71
2021/08/26 00:30:56;;;;;;;12.20;8.27;;;15.80;99.90;;;;;;5058722;28;20180;-70
2021/08/26 00:33:21;;;;;;;12.50;8.37;;;15.80;99.90;;;;;;5051954;28;20175;-70
2021/08/26 00:35:47;;;;;;;9.47;7.60;;;15.80;99.90;;;;;;5052170;28;20251;-70
2021/08/26 00:38:12;;;;;;;11.47;7.80;;;15.70;99.90;;;;;;5051658;28;20222;-70
2021/08/26 00:40:38;;;;;;;8.37;7.03;;;15.60;99.90;;;;;;5056504;28;20171;-70
2021/08/26 00:43:04;;;;;;;7.63;6.13;;;15.60;99.90;;;;;;5071862;28;20168;-70
2021/08/26 00:45:30;;;;;;;6.47;5.23;;;15.60;99.90;;;;;;5071773;28;20184;-70
2021/08/26 00:47:56;;;;;;;7.07;6.03;;;15.60;99.90;;;;;;5071597;28;20222;-70
2021/08/26 00:50:26;;;;;;;7.33;6.20;;;15.60;99.90;;;;;;5068768;28;21211;-70
2021/08/26 00:52:53;;;;;;;7.10;5.70;;;15.60;99.90;;;;;;5051690;28;20403;-70
2021/08/26 00:55:19;;;;;;;7.23;5.43;;;15.60;99.90;;;;;;5052045;28;20473;-71
2021/08/26 00:57:45;;;;;;;7.30;5.53;;;15.60;99.90;;;;;;5055303;28;20856;-71
2021/08/26 01:00:11;;;;;;;6.80;5.00;;;15.60;99.90;;;;;;5054995;28;20262;-71
2021/08/26 01:05:46;;;;;;;7.00;5.47;;;15.60;99.90;;;;;;5151048;27;20516;-71
2021/08/26 01:08:17;;;;;;;12.57;7.70;;;15.50;99.90;;;;;;5151728;27;20394;-70
2021/08/26 01:10:44;;;;;;;14.57;7.63;;;15.50;99.90;;;;;;5150512;27;20467;-70
2021/08/26 01:13:10;;;;;;;7.50;6.20;;;15.60;99.90;;;;;;5151082;27;20582;-70
2021/08/26 01:15:36;;;;;;;8.17;6.13;;;15.50;99.90;;;;;;5150920;27;20409;-70
2021/08/26 01:18:02;;;;;;;9.53;6.93;;;15.50;99.90;;;;;;5151416;27;20787;-70
2021/08/26 01:20:28;;;;;;;12.10;6.73;;;15.50;99.90;;;;;;5148594;27;20402;-70
2021/08/26 01:22:55;;;;;;;9.87;6.53;;;15.50;99.90;;;;;;5151335;27;20157;-70
2021/08/26 01:25:26;;;;;;;7.43;5.30;;;15.50;99.90;;;;;;5151181;27;20180;-70
2021/08/26 01:28:04;;;;;;;6.67;4.77;;;15.50;99.90;;;;;;5146770;27;20503;-70
2021/08/26 01:30:33;;;;;;;7.10;6.40;;;15.50;99.90;;;;;;5150046;27;20414;-70
2021/08/26 01:33:00;;;;;;;7.50;5.23;;;15.50;99.90;;;;;;5150668;27;20425;-70
2021/08/26 01:35:27;;;;;;;5.40;4.07;;;15.50;99.90;;;;;;5150099;27;20752;-70
2021/08/26 01:37:53;;;;;;;6.80;4.77;;;15.50;99.90;;;;;;5133884;27;20422;-70
2021/08/26 01:40:37;;;;;;;8.70;5.87;;;15.50;99.90;;;;;;5130133;27;20405;-70
2021/08/26 01:43:06;;;;;;;6.63;4.37;;;15.50;99.90;;;;;;5130176;28;20403;-70
2021/08/26 01:45:32;;;;;;;10.17;6.33;;;15.60;99.90;;;;;;5130097;28;20441;-70
2021/08/26 01:47:57;;;;;;;9.43;5.10;;;15.50;99.90;;;;;;5149383;27;20406;-70
2021/08/26 01:50:23;;;;;;;11.17;8.00;;;15.50;99.90;;;;;;5150498;27;20169;-70
2021/08/26 01:52:48;;;;;;;13.20;7.53;;;15.50;99.90;;;;;;5146487;27;20231;-70
2021/08/26 01:55:14;;;;;;;5.17;3.90;;;15.60;99.90;;;;;;5130544;27;20230;-70
2021/08/26 01:57:39;;;;;;;10.03;4.50;;;15.60;99.90;;;;;;5146209;27;20241;-70
2021/08/26 02:00:07;;;;;;;5.90;4.13;;;15.50;99.90;;;;;;5132745;27;20208;-70
2021/08/26 02:02:33;;;;;;;4.93;4.23;;;15.50;99.90;;;;;;5112469;28;20204;-70
2021/08/26 02:04:58;;;;;;;5.60;4.20;;;15.40;99.90;;;;;;5129026;28;20494;-70
2021/08/26 02:07:24;;;;;;;6.07;3.70;;;15.40;99.90;;;;;;5129562;28;20548;-70
2021/08/26 02:09:50;;;;;;;7.40;3.13;;;15.30;99.90;;;;;;5129508;28;20650;-70
2021/08/26 02:12:15;;;;;;;10.87;3.27;;;15.30;99.90;;;;;;5126972;28;20194;-70
2021/08/26 02:14:41;;;;;;;3.67;2.73;;;15.20;99.90;;;;;;5129574;28;20686;-70
2021/08/26 02:17:07;;;;;;;3.73;2.57;;;15.20;99.90;;;;;;5114988;28;20185;-70
2021/08/26 02:19:33;;;;;;;4.17;2.50;;;15.10;99.90;;;;;;5115779;28;20162;-70
2021/08/26 02:21:59;;;;;;;5.40;2.20;;;15.10;99.90;;;;;;5115140;28;20189;-70
2021/08/26 02:24:24;;;;;;;3.10;2.33;;;15.00;99.90;;;;;;5115483;28;20440;-70
2021/08/26 02:26:50;;;;;;;4.33;2.43;;;15.00;99.90;;;;;;5115235;28;20174;-70
2021/08/26 02:29:16;;;;;;;3.90;2.27;;;15.00;99.90;;;;;;5115408;28;20188;-70
2021/08/26 02:31:41;;;;;;;2.30;1.70;;;14.90;99.90;;;;;;5115057;28;20177;-70
2021/08/26 02:34:07;;;;;;;5.70;2.00;;;14.90;99.90;;;;;;5115560;28;20271;-70
2021/08/26 02:36:32;;;;;;;3.33;2.00;;;14.90;99.90;;;;;;5116335;28;20192;-70
2021/08/26 02:38:58;;;;;;;3.57;2.27;;;14.80;99.90;;;;;;5115521;28;20182;-70
2021/08/26 02:41:23;;;;;;;6.13;2.50;;;14.90;99.90;;;;;;5114706;28;20182;-70
2021/08/26 02:43:49;;;;;;;3.97;2.80;;;14.80;99.90;;;;;;5104637;28;20194;-70
2021/08/26 02:46:14;;;;;;;3.63;2.00;;;14.80;99.90;;;;;;5115202;28;20185;-70
2021/08/26 02:48:40;;;;;;;3.60;1.97;;;14.80;99.90;;;;;;5115248;28;20269;-70
2021/08/26 02:51:05;;;;;;;4.83;2.50;;;14.80;99.90;;;;;;5113926;28;20178;-70
2021/08/26 02:53:31;;;;;;;4.00;3.00;;;14.80;99.90;;;;;;5115099;28;20504;-70
2021/08/26 02:55:57;;;;;;;4.90;2.27;;;14.80;99.90;;;;;;5115187;28;20155;-70
2021/08/26 02:58:24;;;;;;;5.80;3.90;;;14.80;99.90;;;;;;5119705;28;20180;-73
2021/08/26 03:00:49;;;;;;;4.00;2.10;;;14.80;99.90;;;;;;5119515;27;20463;-73
2021/08/26 03:03:15;;;;;;;5.70;2.37;;;14.80;99.90;;;;;;5124535;27;20420;-73
2021/08/26 03:05:40;;;;;;;4.97;2.73;;;14.80;99.90;;;;;;5123940;28;20146;-73
2021/08/26 03:08:06;;;;;;;4.07;2.57;;;14.80;99.90;;;;;;5122552;28;20173;-73
2021/08/26 03:10:31;;;;;;;4.17;2.77;;;14.80;99.90;;;;;;5121459;28;20174;-73
2021/08/26 03:12:57;;;;;;;2.67;2.47;;;14.80;99.90;;;;;;5124703;28;20162;-73
2021/08/26 03:15:23;;;;;;;2.87;2.20;;;14.80;99.90;;;;;;5121117;28;20581;-73
2021/08/26 03:17:48;;;;;;;5.17;2.43;;;14.80;99.90;;;;;;5123866;28;20233;-73
2021/08/26 03:20:14;;;;;;;3.00;2.27;;;14.70;99.90;;;;;;5122234;28;20203;-74
2021/08/26 03:22:40;;;;;;;7.93;3.60;;;14.80;99.90;;;;;;5124497;28;20186;-74
2021/08/26 03:25:07;;;;;;;4.00;2.50;;;14.80;99.90;;;;;;5124521;28;20475;-74
2021/08/26 03:27:32;;;;;;;5.33;2.97;;;14.70;99.90;;;;;;5121413;28;20456;-73
2021/08/26 03:29:58;;;;;;;4.47;2.17;;;14.70;99.90;;;;;;5120149;28;20444;-73
2021/08/26 03:32:24;;;;;;;8.03;3.07;;;14.80;99.90;;;;;;5122177;28;20189;-73
2021/08/26 03:34:50;;;;;;;7.77;3.80;;;14.80;99.90;;;;;;5124950;28;20189;-73
2021/08/26 03:37:16;;;;;;;7.07;2.80;;;14.80;99.90;;;;;;5123862;28;20431;-73
2021/08/26 03:39:41;;;;;;;9.27;3.20;;;14.80;99.90;;;;;;5122402;28;20411;-73
2021/08/26 03:42:07;;;;;;;6.73;2.77;;;14.80;99.90;;;;;;5110535;28;20189;-73
2021/08/26 03:44:32;;;;;;;4.90;2.37;;;14.80;99.90;;;;;;5100381;28;20195;-73
2021/08/26 03:46:58;;;;;;;4.97;2.10;;;14.80;99.90;;;;;;5104006;28;20675;-73
2021/08/26 03:49:23;;;;;;;5.40;3.63;;;14.80;99.90;;;;;;5104599;28;20155;-73
2021/08/26 03:51:49;;;;;;;5.17;2.30;;;14.90;99.90;;;;;;5110860;28;20279;-73
2021/08/26 03:54:15;;;;;;;4.10;2.50;;;14.90;99.90;;;;;;5126156;27;20658;-73
2021/08/26 03:56:40;;;;;;;3.20;2.23;;;14.90;99.90;;;;;;5133377;27;20177;-73
2021/08/26 03:59:06;;;;;;;5.10;2.17;;;14.90;99.90;;;;;;5128510;27;20205;-73
2021/08/26 04:01:32;;;;;;;5.97;2.10;;;15.00;99.90;;;;;;5123881;28;20186;-73
2021/08/26 04:03:58;;;;;;;4.83;2.20;;;14.90;99.90;;;;;;5125010;28;20201;-73
2021/08/26 04:06:23;;;;;;;6.03;2.03;;;14.90;99.90;;;;;;5126312;28;20422;-73
2021/08/26 04:08:49;;;;;;;3.80;2.13;;;14.90;99.90;;;;;;5125321;28;20178;-73
2021/08/26 04:11:15;;;;;;;3.63;2.57;;;14.90;99.90;;;;;;5124031;28;20212;-73
2021/08/26 04:13:40;;;;;;;4.70;2.00;;;15.00;99.90;;;;;;5125483;28;20165;-73
2021/08/26 04:16:06;;;;;;;5.80;2.73;;;14.90;99.90;;;;;;5126405;28;20451;-73
2021/08/26 04:18:31;;;;;;;4.40;2.43;;;14.90;99.90;;;;;;5127486;28;20589;-73
2021/08/26 04:20:57;;;;;;;7.47;2.47;;;14.90;99.90;;;;;;5125727;28;20175;-73
2021/08/26 04:23:23;;;;;;;4.50;2.30;;;14.90;99.90;;;;;;5125657;28;20162;-73
2021/08/26 04:25:48;;;;;;;7.23;2.10;;;14.90;99.90;;;;;;5126203;28;20182;-73
2021/08/26 04:28:14;;;;;;;4.13;2.50;;;14.90;99.90;;;;;;5125019;27;20214;-73
2021/08/26 04:30:39;;;;;;;4.37;2.80;;;14.90;99.90;;;;;;5118735;28;20621;-73
2021/08/26 04:33:05;;;;;;;4.20;2.10;;;14.90;99.90;;;;;;5126741;28;20162;-73
2021/08/26 04:35:31;;;;;;;2.77;2.10;;;14.90;99.90;;;;;;5127228;28;20233;-73
2021/08/26 04:37:57;;;;;;;5.20;2.53;;;14.90;99.90;;;;;;5127047;28;20217;-73
2021/08/26 04:40:22;;;;;;;3.03;1.93;;;14.90;99.90;;;;;;5124263;28;20505;-73
2021/08/26 04:42:48;;;;;;;4.47;2.37;;;14.80;99.90;;;;;;5119317;28;20178;-73
2021/08/26 04:45:14;;;;;;;3.63;1.90;;;14.90;99.90;;;;;;5121687;28;20200;-73
2021/08/26 04:47:39;;;;;;;4.03;2.37;;;14.90;99.90;;;;;;5121407;28;20229;-73
2021/08/26 04:50:06;;;;;;;4.40;3.37;;;14.80;99.90;;;;;;5121305;28;20165;-73
2021/08/26 04:52:31;;;;;;;4.87;1.80;;;14.80;99.90;;;;;;5118464;28;20504;-73
2021/08/26 04:54:57;;;;;;;4.17;2.40;;;14.80;99.90;;;;;;5119209;28;20416;-73
2021/08/26 04:57:22;;;;;;;5.00;3.20;;;14.80;99.90;;;;;;5121687;28;20158;-73
2021/08/26 04:59:48;;;;;;;2.53;1.77;;;14.80;99.90;;;;;;5121404;28;20250;-73
2021/08/26 05:02:13;;;;;;;6.20;2.17;;;14.80;99.90;;;;;;5121085;28;20178;-73
2021/08/26 05:04:39;;;;;;;5.10;2.40;;;14.80;99.90;;;;;;5120463;28;20212;-73
2021/08/26 05:07:05;;;;;;;15.60;2.47;;;14.80;99.90;;;;;;5116637;28;20222;-73
2021/08/26 05:09:30;;;;;;;4.53;2.90;;;14.80;99.90;;;;;;5113938;28;20191;-73
2021/08/26 05:11:58;;;;;;;5.30;2.50;;;14.80;99.90;;;;;;5109726;28;20547;-73
2021/08/26 05:14:24;;;;;;;4.23;1.90;;;14.80;99.90;;;;;;5115557;28;20604;-73
2021/08/26 05:16:49;;;;;;;7.90;2.30;;;14.80;99.90;;;;;;5116023;28;20416;-73
2021/08/26 05:19:15;;;;;;;6.90;2.43;;;14.80;99.90;;;;;;5122839;28;20240;-73
2021/08/26 05:21:40;;;;;;;10.80;2.17;;;14.80;99.90;;;;;;5112412;28;20186;-73
2021/08/26 05:24:06;;;;;;;6.80;2.10;;;14.80;99.90;;;;;;5111037;28;20201;-73
2021/08/26 05:26:32;;;;;;;5.20;2.40;;;14.90;99.90;;;;;;5113028;28;20453;-73
2021/08/26 05:28:57;;;;;;;4.70;2.27;;;14.90;99.90;;;;;;5116815;28;20197;-73
2021/08/26 05:31:23;;;;;;;6.07;2.17;;;14.90;99.90;;;;;;5115987;28;20178;-73
2021/08/26 05:33:48;;;;;;;5.13;2.57;;;14.90;99.90;;;;;;5114356;28;20182;-73
2021/08/26 05:36:14;;;;;;;2.80;2.17;;;14.90;99.90;;;;;;5111748;28;20238;-73
2021/08/26 05:38:40;;;;;;;3.80;2.00;;;15.00;99.90;;;;;;5118422;28;20258;-73
2021/08/26 05:41:05;;;;;;;3.37;1.57;;;15.00;99.90;;;;;;5114058;28;20234;-73
2021/08/26 05:43:31;;;;;;;7.17;3.00;;;15.00;99.90;;;;;;5124362;28;20165;-73
2021/08/26 05:45:56;;;;;;;5.30;1.97;;;15.00;99.90;;;;;;5117509;28;20543;-73
2021/08/26 05:48:22;;;;;;;5.83;2.63;;;15.00;99.90;;;;;;5114738;28;20702;-73
2021/08/26 05:50:47;;;;;;;4.77;2.07;;;15.10;99.90;;;;;;5112473;28;20213;-73
2021/08/26 05:53:13;;;;;;;5.53;2.13;;;15.00;99.90;;;;;;5114513;28;20181;-73
2021/08/26 05:55:38;;;;;;;4.53;2.20;;;15.10;99.90;;;;;;5118991;28;20287;-73
2021/08/26 05:58:04;;;;;;;3.53;1.70;;;15.10;99.90;;;;;;5119412;28;20235;-73
2021/08/26 06:00:30;;;;;;;5.50;1.93;;;15.10;99.90;;;;;;5117463;28;20234;-73
2021/08/26 06:02:55;;;;;;;6.20;2.17;;;15.20;99.90;;;;;;5120235;28;20237;-73
2021/08/26 06:05:21;;;;;;;4.50;1.80;;;15.20;99.90;;;;;;5125012;28;20206;-73
2021/08/26 06:07:47;;;;;;;2.43;2.03;;;15.20;99.90;;;;;;5125293;28;20185;-73
2021/08/26 06:10:13;;;;;;;5.90;1.53;;;15.30;99.90;;;;;;5118873;28;20635;-73
2021/08/26 06:12:40;;;;;;;4.73;2.10;;;15.40;99.90;;;;;;5125574;28;20419;-73
2021/08/26 06:15:08;;;;;;;5.83;1.53;;;15.40;99.90;;;;;;5118675;28;20424;-73
2021/08/26 06:17:34;;;;;;;5.87;1.90;;;15.50;99.90;;;;;;5120571;28;20442;-73
2021/08/26 06:19:59;;;;;;;2.00;1.20;;;15.50;99.90;;;;;;5120273;28;20416;-73
2021/08/26 06:22:25;;;;;;;3.70;2.07;;;15.60;99.90;;;;;;5124387;28;20215;-73
2021/08/26 06:24:50;;;;;;;2.27;1.33;;;15.60;99.90;;;;;;5122549;28;20197;-73
2021/08/26 06:27:16;;;;;;;3.90;1.60;;;15.70;99.90;;;;;;5127596;28;20190;-73
2021/08/26 06:29:41;;;;;;;4.13;1.73;;;15.80;99.90;;;;;;5126702;28;20202;-73
2021/08/26 06:32:07;;;;;;;2.43;2.13;;;15.80;99.90;;;;;;5126927;27;20178;-73
2021/08/26 06:34:33;;;;;;;5.53;1.77;;;15.90;99.90;;;;;;5143218;27;20224;-73
2021/08/26 06:37:00;;;;;;;6.80;2.27;;;15.90;99.90;;;;;;5121988;28;20202;-73
2021/08/26 06:39:26;;;;;;;3.30;1.93;;;16.00;99.90;;;;;;5120626;28;20181;-73
2021/08/26 06:41:52;;;;;;;8.53;2.30;;;16.10;99.90;;;;;;5123426;28;20416;-73
2021/08/26 06:44:17;;;;;;;4.40;1.87;;;16.20;99.90;;;;;;5121293;28;20702;-73
2021/08/26 06:46:44;;;;;;;4.53;1.73;;;16.30;99.90;;;;;;5123654;28;20174;-73
2021/08/26 06:49:09;;;;;;;5.70;2.40;;;16.30;99.90;;;;;;5125999;28;20197;-73
2021/08/26 06:51:35;;;;;;;7.23;2.17;;;16.40;99.90;;;;;;5123060;28;20420;-73
2021/08/26 06:54:01;;;;;;;3.40;1.43;;;16.40;99.90;;;;;;5124449;28;20218;-73
2021/08/26 06:56:28;;;;;;;8.77;2.03;;;16.50;99.90;;;;;;5123657;28;20205;-73
2021/08/26 06:58:54;;;;;;;5.17;2.30;;;16.50;99.90;;;;;;5119140;28;20198;-73
2021/08/26 07:01:20;;;;;;;5.50;2.90;;;16.50;99.90;;;;;;5119094;27;20459;-73
2021/08/26 07:03:45;;;;;;;3.53;1.90;;;16.60;99.90;;;;;;5119457;28;20983;-73
2021/08/26 07:06:13;;;;;;;3.97;2.23;;;16.70;99.90;;;;;;5117463;28;20186;-73
2021/08/26 07:08:39;;;;;;;2.97;2.00;;;16.70;99.90;;;;;;5116927;28;20693;-73
2021/08/26 07:11:04;;;;;;;7.83;1.90;;;16.70;99.90;;;;;;5123894;28;20428;-73
2021/08/26 07:13:30;;;;;;;5.53;2.00;;;16.70;99.90;;;;;;5120255;28;20207;-73
2021/08/26 07:15:55;;;;;;;6.73;1.90;;;16.60;99.90;;;;;;5119731;28;20178;-73
2021/08/26 07:18:22;;;;;;;2.90;1.43;;;16.60;99.90;;;;;;5124199;28;20249;-73
2021/08/26 07:20:47;;;;;;;3.80;2.20;;;16.60;99.90;;;;;;5119944;28;20658;-73
2021/08/26 07:23:13;;;;;;;2.40;1.87;;;16.60;99.90;;;;;;5117961;28;20396;-73
2021/08/26 07:25:38;;;;;;;2.20;1.73;;;16.50;99.90;;;;;;5125092;28;20194;-73
2021/08/26 07:28:06;;;;;;;4.63;2.80;;;16.50;99.90;;;;;;5120073;28;20177;-73
2021/08/26 07:30:31;;;;;;;3.80;2.00;;;16.50;99.90;;;;;;5117875;28;20542;-73
2021/08/26 07:32:57;;;;;;;5.27;2.40;;;16.50;99.90;;;;;;5107551;27;20421;-73
2021/08/26 07:35:22;;;;;;;6.73;2.50;;;16.50;99.90;;;;;;5120696;28;20182;-73
2021/08/26 07:37:48;;;;;;;4.23;2.67;;;16.50;99.90;;;;;;5117831;27;20204;-73
2021/08/26 07:40:14;;;;;;;5.40;2.47;;;16.40;99.90;;;;;;5120364;28;20209;-73
2021/08/26 07:42:40;;;;;;;5.50;2.27;;;16.40;99.90;;;;;;5118877;28;20166;-73
2021/08/26 07:45:07;;;;;;;4.60;2.50;;;16.50;99.90;;;;;;5118333;28;20448;-73
2021/08/26 07:47:32;;;;;;;3.00;1.50;;;16.60;99.90;;;;;;5119326;28;20443;-73
2021/08/26 07:49:58;;;;;;;2.40;1.80;;;16.80;99.90;;;;;;5108131;28;20416;-73
2021/08/26 07:52:24;;;;;;;2.70;1.60;;;17.00;99.90;;;;;;5121931;28;20182;-73
2021/08/26 07:54:50;;;;;;;3.60;1.80;;;17.10;99.90;;;;;;5123970;28;20477;-73
2021/08/26 07:57:15;;;;;;;2.47;1.20;;;17.20;99.90;;;;;;5121079;28;20474;-74
2021/08/26 07:59:41;;;;;;;1.63;1.37;;;17.30;99.90;;;;;;5122973;27;20194;-74
2021/08/26 08:02:07;;;;;;;5.43;1.70;;;17.40;99.90;;;;;;5121860;28;20185;-74
2021/08/26 08:04:33;;;;;;;2.30;1.70;;;17.60;99.90;;;;;;5120768;28;20213;-74
2021/08/26 08:06:59;;;;;;;3.17;1.43;;;17.60;99.90;;;;;;5117821;28;20905;-74
2021/08/26 08:09:24;;;;;;;4.30;2.17;;;17.60;99.90;;;;;;5121443;28;20597;-74
2021/08/26 08:11:50;;;;;;;4.43;2.17;;;17.50;99.90;;;;;;5121683;28;20490;-74
2021/08/26 08:14:16;;;;;;;3.10;2.20;;;17.50;99.90;;;;;;5123284;28;20231;-74
2021/08/26 08:16:41;;;;;;;2.97;2.10;;;17.40;99.90;;;;;;5124438;28;20193;-74
2021/08/26 08:19:07;;;;;;;3.17;1.83;;;17.30;99.90;;;;;;5121443;28;20162;-74
2021/08/26 08:21:33;;;;;;;3.93;1.73;;;17.30;99.90;;;;;;5120820;28;20165;-74
2021/08/26 08:23:58;;;;;;;2.97;1.73;;;17.20;99.90;;;;;;5123107;28;20209;-74
2021/08/26 08:26:24;;;;;;;2.87;1.40;;;17.20;99.90;;;;;;5120022;28;21003;-74
2021/08/26 08:28:50;;;;;;;1.90;1.40;;;17.20;99.90;;;;;;5119791;28;20177;-74
2021/08/26 08:31:15;;;;;;;1.70;1.60;;;17.30;99.90;;;;;;5115929;28;20637;-73
2021/08/26 08:33:44;;;;;;;3.27;1.77;;;17.30;99.90;;;;;;5121945;28;20264;-74
2021/08/26 08:36:09;;;;;;;2.77;1.80;;;17.30;99.90;;;;;;5117919;28;20173;-73
2021/08/26 08:38:35;;;;;;;2.53;1.33;;;17.50;99.90;;;;;;5121359;28;20880;-73
2021/08/26 08:41:02;;;;;;;4.03;1.70;;;17.60;99.90;;;;;;5119055;28;20178;-73
2021/08/26 08:43:27;;;;;;;2.90;1.47;;;17.80;99.90;;;;;;5108850;28;20200;-74
2021/08/26 08:45:55;;;;;;;1.57;1.10;;;18.00;99.90;;;;;;5119727;28;20551;-74
2021/08/26 08:48:21;;;;;;;4.40;1.30;;;18.10;99.90;;;;;;5119755;28;20166;-74
2021/08/26 08:50:47;;;;;;;2.40;1.17;;;18.30;99.90;;;;;;5120721;28;20423;-74
2021/08/26 08:53:14;;;;;;;4.10;1.47;;;18.40;99.90;;;;;;5117905;28;20430;-74
2021/08/26 08:55:43;;;;;;;2.23;1.40;;;18.60;99.90;;;;;;5117008;28;20180;-74
2021/08/26 08:58:09;;;;;;;5.90;2.77;;;18.70;99.90;;;;;;5115629;28;20518;-74
2021/08/26 09:00:35;;;;;;;1.87;1.57;;;18.80;99.90;;;;;;5116787;28;20435;-74
2021/08/26 09:03:01;;;;;;;1.80;1.50;;;18.90;99.90;;;;;;5117041;28;20502;-74
2021/08/26 09:05:48;;;;;;;5.13;3.27;;;18.90;99.90;;;;;;5117458;28;20849;-74
2021/08/26 09:08:14;;;;;;;7.90;3.30;;;18.80;99.90;;;;;;5090611;28;20428;-74
2021/08/26 09:10:40;;;;;;;4.90;3.20;;;18.70;99.90;;;;;;5114284;28;20428;-74
2021/08/26 09:13:06;;;;;;;5.83;4.50;;;18.60;99.90;;;;;;5119160;28;20380;-74
2021/08/26 09:15:34;;;;;;;5.80;4.77;;;18.60;99.90;;;;;;5117284;28;20235;-74
2021/08/26 09:18:20;;;;;;;7.17;4.53;;;18.60;99.90;;;;;;5118059;28;20192;-74
2021/08/26 09:23:55;;;;;;;8.43;4.57;;;18.70;99.90;;;;;;5075372;27;20548;-74
2021/08/26 09:26:25;;;;;;;7.83;5.83;;;19.10;99.90;;;;;;5053641;28;20399;-74
2021/08/26 09:28:52;;;;;;;6.33;5.67;;;19.20;99.90;;;;;;5051427;28;20391;-74
2021/08/26 09:31:23;;;;;;;6.83;4.40;;;19.30;99.90;;;;;;5050967;28;20537;-74
2021/08/26 09:36:53;;;;;;;4.40;3.27;;;19.30;99.90;;;;;;5093204;27;20602;-76
2021/08/26 09:39:21;;;;;;;6.10;3.13;;;19.20;99.90;;;;;;5103404;28;20409;-77
2021/08/26 09:44:29;;;;;;;4.90;2.90;;;19.10;99.90;;;;;;5073766;28;20548;-74
2021/08/26 09:46:57;;;;;;;3.57;2.40;;;18.70;99.90;;;;;;5056063;28;20429;-74
2021/08/26 09:49:26;;;;;;;2.50;2.30;;;18.50;99.90;;;;;;5061210;28;20629;-74
2021/08/26 09:52:13;;;;;;;3.23;2.50;;;18.40;99.90;;;;;;5051781;28;20441;-74
2021/08/26 09:54:45;;;;;;;3.23;2.20;;;18.30;99.90;;;;;;5063023;28;20449;-74
2021/08/26 09:57:33;;;;;;;2.97;2.20;;;18.20;99.90;;;;;;5053382;28;20395;-74
2021/08/26 10:00:00;;;;;;;3.50;2.07;;;18.20;99.90;;;;;;5051552;28;20872;-73
2021/08/26 10:02:28;;;;;;;2.90;1.60;;;18.30;99.90;;;;;;5033289;28;20474;-73
2021/08/26 10:04:55;;;;;;;4.03;2.20;;;18.20;99.90;;;;;;5032100;28;20456;-73
2021/08/26 10:07:23;;;;;;;6.23;2.17;;;18.30;99.90;;;;;;5029788;28;20433;-73
2021/08/26 10:09:48;;;;;;;2.47;1.60;;;18.40;99.90;;;;;;5020283;28;20419;-73
2021/08/26 10:12:15;;;;;;;3.63;2.30;;;18.40;99.90;;;;;;5029940;28;20431;-73
2021/08/26 10:14:43;;;;;;;5.00;1.93;;;18.60;99.90;;;;;;5030030;28;20168;-73
2021/08/26 10:17:10;;;;;;;4.47;1.80;;;18.80;99.90;;;;;;5031216;28;20404;-73
2021/08/26 10:19:37;;;;;;;2.90;1.50;;;18.90;99.90;;;;;;5028138;28;20422;-73
2021/08/26 10:22:03;;;;;;;4.60;2.03;;;19.10;99.90;;;;;;5028631;28;20415;-73
2021/08/26 10:24:29;;;;;;;6.70;3.10;;;19.10;99.90;;;;;;5028420;28;20420;-74
2021/08/26 10:27:00;;;;;;;6.00;2.10;;;19.00;99.90;;;;;;5026459;28;20518;-74
2021/08/26 10:29:26;;;;;;;2.53;1.73;;;18.90;99.90;;;;;;5028326;28;20184;-74
2021/08/26 10:31:57;;;;;;;5.53;2.20;;;18.90;99.90;;;;;;5024697;28;20522;-74
2021/08/26 10:34:25;;;;;;;3.40;1.37;;;18.80;99.90;;;;;;5028497;28;20412;-74
2021/08/26 10:39:35;;;;;;;4.03;2.47;;;18.80;99.90;;;;;;5108979;27;21054;-74
2021/08/26 10:50:37;;;;;;;5.77;2.00;;;19.10;99.90;;;;;;5066875;28;20949;-74
2021/08/26 10:53:07;;;;;;;5.57;2.43;;;19.20;99.90;;;;;;5051163;28;20418;-74
2021/08/26 10:55:40;;;;;;;10.47;2.83;;;19.40;99.90;;;;;;5050433;28;20391;-74
2021/08/26 11:01:04;;;;;;;5.87;4.30;;;19.60;99.90;;;;;;5054611;28;20526;-75
2021/08/26 11:11:49;;;;;;;9.63;5.50;;;19.50;99.90;;;;;;5107181;27;21054;-74
2021/08/26 11:17:02;;;;;;;6.30;5.30;;;19.10;99.90;;;;;;5069085;28;20520;-76
2021/08/26 11:19:30;;;;;;;8.47;4.73;;;19.00;99.90;;;;;;5068442;28;20378;-76
2021/08/26 11:21:58;;;;;;;5.40;4.70;;;19.00;99.90;;;;;;5041191;28;20432;-76
2021/08/26 11:29:40;;;;;;;7.20;4.37;;;19.00;99.90;;;;;;5062659;28;21118;-74
2021/08/26 11:32:08;;;;;;;6.00;5.40;;;19.30;99.90;;;;;;5047157;28;20454;-74
2021/08/26 11:45:27;;;;;;;8.53;5.40;;;19.20;99.90;;;;;;5129803;27;20680;-74
2021/08/26 11:53:12;;;;;;;5.77;4.47;;;19.50;99.90;;;;;;5128076;27;21068;-74
2021/08/26 11:55:40;;;;;;;5.63;4.53;;;20.00;99.90;;;;;;5152264;27;20824;-74
2021/08/26 11:58:08;;;;;;;6.33;4.87;;;20.00;99.90;;;;;;5148390;27;20513;-74
2021/08/26 12:00:39;;;;;;;8.57;4.53;;;19.90;99.90;;;;;;5118034;28;20420;-74
2021/08/26 12:03:05;;;;;;;8.00;4.77;;;20.00;99.90;;;;;;5110896;28;20408;-74
2021/08/26 12:05:31;;;;;;;7.57;3.93;;;20.00;99.90;;;;;;5116417;27;20400;-74
2021/08/26 12:07:58;;;;;;;4.13;3.47;;;20.10;99.90;;;;;;5111070;28;20212;-74
2021/08/26 12:13:07;;;;;;;3.80;3.03;;;20.10;99.90;;;;;;5151768;27;21026;-74
2021/08/26 12:20:54;;;;;;;3.80;3.10;;;19.90;99.90;;;;;;5123369;27;20541;-74
2021/08/26 12:23:22;;;;;;;5.80;4.07;;;19.90;99.90;;;;;;5110612;28;20419;-74
2021/08/26 12:26:06;;;;;;;3.63;3.10;;;19.90;99.90;;;;;;5113147;28;20816;-74
2021/08/26 12:28:33;;;;;;;4.50;3.77;;;20.00;99.90;;;;;;5110337;28;20423;-74
2021/08/26 12:30:59;;;;;;;6.90;4.83;;;20.10;99.90;;;;;;5109214;28;20420;-74
2021/08/26 12:33:25;;;;;;;4.87;3.10;;;20.20;99.90;;;;;;5112505;28;20425;-74
2021/08/26 12:41:17;;;;;;;7.90;3.40;;;20.30;99.90;;;;;;5013821;27;21071;-74
2021/08/26 12:43:48;;;;;;;11.97;3.60;;;20.30;99.90;;;;;;5009943;28;20481;-74
2021/08/26 12:46:18;;;;;;;5.83;3.90;;;20.30;99.90;;;;;;5008057;28;20419;-74
2021/08/26 12:48:45;;;;;;;4.20;3.73;;;20.30;99.90;;;;;;5007137;28;20446;-74
2021/08/26 12:51:27;;;;;;;5.20;4.00;;;20.40;99.90;;;;;;5004545;28;20424;-74
2021/08/26 12:59:21;;;;;;;3.80;3.37;;;20.50;99.90;;;;;;5058519;28;20574;-74
2021/08/26 13:02:05;;;;;;;6.73;3.70;;;20.60;99.90;;;;;;5043247;28;20505;-74
2021/08/26 13:04:30;;;;;;;4.80;3.17;;;20.60;99.90;;;;;;5042903;28;20453;-74
2021/08/26 13:06:56;;;;;;;4.60;2.80;;;20.50;99.90;;;;;;5037581;28;20430;-74
2021/08/26 13:12:06;;;;;;;3.60;3.30;;;20.50;99.90;;;;;;5043581;28;20557;-74
2021/08/26 13:17:12;;;;;;;4.73;3.93;;;20.50;99.90;;;;;;5059834;28;20639;-75
2021/08/26 13:19:39;;;;;;;3.60;3.20;;;20.40;99.90;;;;;;5054616;28;20410;-75
2021/08/26 13:25:03;;;;;;;7.50;3.70;;;20.40;99.90;;;;;;5056620;28;20647;-74
2021/08/26 13:27:29;;;;;;;6.10;3.77;;;20.30;99.90;;;;;;5043379;28;20417;-74
2021/08/26 13:29:55;;;;;;;8.23;5.93;;;20.30;99.90;;;;;;5044148;28;20777;-74
2021/08/26 13:32:22;;;;;;;4.60;3.30;;;20.20;99.90;;;;;;5044456;28;20180;-74
2021/08/26 13:34:48;;;;;;;5.40;3.40;;;20.10;99.90;;;;;;5048884;28;20426;-74
2021/08/26 13:37:14;;;;;;;4.33;3.90;;;20.00;99.90;;;;;;5049245;28;20854;-74
2021/08/26 13:39:41;;;;;;;6.80;4.10;;;19.90;99.90;;;;;;5053715;28;20395;-74
2021/08/26 13:42:07;;;;;;;6.53;4.00;;;19.80;99.90;;;;;;5051135;28;20654;-74
2021/08/26 13:44:33;;;;;;;4.47;3.53;;;19.80;99.90;;;;;;5052323;28;20486;-74
2021/08/26 13:46:59;;;;;;;4.33;3.93;;;19.70;99.90;;;;;;5048191;28;20189;-74
2021/08/26 13:49:28;;;;;;;4.10;3.10;;;19.70;99.90;;;;;;5033523;28;20413;-74
2021/08/26 13:51:53;;;;;;;8.73;3.43;;;19.70;99.90;;;;;;5042208;28;20211;-74
2021/08/26 13:54:21;;;;;;;2.97;2.67;;;19.70;99.90;;;;;;5055073;28;20399;-74
2021/08/26 13:56:47;;;;;;;4.57;3.17;;;19.70;99.90;;;;;;5053442;28;20216;-74
2021/08/26 13:59:12;;;;;;;5.57;3.10;;;19.60;99.90;;;;;;5053944;28;20536;-74
2021/08/26 14:01:39;;;;;;;7.10;4.53;;;19.50;99.90;;;;;;5046759;28;20416;-74
2021/08/26 14:04:05;;;;;;;7.00;3.17;;;19.40;99.90;;;;;;5034093;28;20197;-74
2021/08/26 14:06:32;;;;;;;4.83;4.10;;;19.40;99.90;;;;;;5034871;28;20446;-74
2021/08/26 14:08:58;;;;;;;4.00;2.40;;;19.30;99.90;;;;;;5035322;28;20485;-74
2021/08/26 14:11:24;;;;;;;3.90;2.90;;;19.30;99.90;;;;;;5033585;28;20454;-74
2021/08/26 14:13:50;;;;;;;3.70;2.83;;;19.30;99.90;;;;;;5034906;28;20987;-74